Time;durP1;ratioP1;P1;durP2;ratioP2;P2;SDS_P1;SDS_P2;PMS_P1;PMS_P2;Temp;Humidity;BMP_temperature;BMP_pressure;BME280_temperature;BME280_humidity;BME280_pressure;Samples;Min_cycle;Max_cycle;Signal;HPM_P1;HPM_P2
2022/01/27 00:01:11;;;;;;;3.83;0.93;;;24.60;99.90;;;;;;4985626;28;20093;-72
2022/01/27 00:03:48;;;;;;;3.42;0.60;;;24.70;99.90;;;;;;4985518;28;20468;-73
2022/01/27 00:06:17;;;;;;;2.90;0.43;;;24.50;99.90;;;;;;4985503;28;20124;-73
2022/01/27 00:08:51;;;;;;;2.65;0.68;;;24.70;99.90;;;;;;4986830;28;20109;-73
2022/01/27 00:11:18;;;;;;;1.73;0.50;;;25.10;99.90;;;;;;4987374;28;20023;-72
2022/01/27 00:13:56;;;;;;;3.50;0.82;;;25.20;99.90;;;;;;4986090;28;20023;-73
2022/01/27 00:16:27;;;;;;;3.13;0.55;;;25.30;99.90;;;;;;4987259;28;20026;-73
2022/01/27 00:18:56;;;;;;;6.28;0.60;;;25.00;99.90;;;;;;4987336;28;20034;-73
2022/01/27 00:21:29;;;;;;;0.85;0.40;;;24.90;99.90;;;;;;4985719;28;20021;-73
2022/01/27 00:23:57;;;;;;;2.22;0.45;;;24.80;99.90;;;;;;4984739;28;20043;-74
2022/01/27 00:26:25;;;;;;;1.58;0.47;;;25.10;99.90;;;;;;4986035;28;20105;-72
2022/01/27 00:28:52;;;;;;;3.03;0.85;;;25.30;99.90;;;;;;4986442;28;20055;-73
2022/01/27 00:31:22;;;;;;;5.05;0.68;;;25.50;99.90;;;;;;4987089;28;20472;-74
2022/01/27 00:33:51;;;;;;;3.60;0.80;;;25.40;99.90;;;;;;4986332;28;20035;-74
2022/01/27 00:36:18;;;;;;;7.78;0.85;;;25.50;99.90;;;;;;4984895;28;20085;-73
2022/01/27 00:38:49;;;;;;;2.85;0.55;;;25.50;99.90;;;;;;4985969;28;20471;-73
2022/01/27 00:41:19;;;;;;;5.78;0.60;;;25.60;99.90;;;;;;4986762;28;20028;-73
2022/01/27 00:43:48;;;;;;;6.30;1.27;;;25.50;99.90;;;;;;4985603;28;20019;-72
2022/01/27 00:46:17;;;;;;;1.83;0.60;;;25.40;99.90;;;;;;4984628;28;20439;-74
2022/01/27 00:48:49;;;;;;;4.15;0.68;;;25.30;99.90;;;;;;4986081;28;20065;-73
2022/01/27 00:51:22;;;;;;;2.58;0.82;;;25.40;99.90;;;;;;4986904;28;20088;-74
2022/01/27 00:54:02;;;;;;;3.78;0.65;;;25.30;99.90;;;;;;4985338;28;20101;-73
2022/01/27 00:56:39;;;;;;;9.98;1.17;;;25.80;99.90;;;;;;4986683;28;20121;-74
2022/01/27 01:01:49;;;;;;;5.47;0.77;;;26.20;99.90;;;;;;4986498;28;20439;-74
2022/01/27 01:04:24;;;;;;;3.05;0.50;;;26.40;99.90;;;;;;4986220;28;20037;-74
2022/01/27 01:06:52;;;;;;;3.65;0.63;;;26.20;99.90;;;;;;4985994;28;20208;-75
2022/01/27 01:14:48;;;;;;;2.60;0.88;;;25.90;99.90;;;;;;4986326;28;20513;-75
2022/01/27 01:20:18;;;;;;;5.43;0.52;;;26.80;99.90;;;;;;4985174;28;20026;-74
2022/01/27 01:31:15;;;;;;;4.65;0.73;;;26.60;99.90;;;;;;4983146;28;19913;-74
2022/01/27 01:33:45;;;;;;;2.70;1.20;;;26.20;99.90;;;;;;4981129;28;20459;-74
2022/01/27 01:36:26;;;;;;;2.67;0.55;;;25.90;99.90;;;;;;4981472;28;20041;-74
2022/01/27 01:38:53;;;;;;;2.38;0.80;;;25.70;99.90;;;;;;4981522;28;20033;-73
2022/01/27 01:41:21;;;;;;;5.35;0.82;;;25.70;99.90;;;;;;4980793;28;20014;-74
2022/01/27 01:43:48;;;;;;;3.00;0.55;;;25.50;99.90;;;;;;4980428;28;20070;-74
2022/01/27 01:46:17;;;;;;;2.25;0.70;;;25.50;99.90;;;;;;4981123;28;20027;-74
2022/01/27 01:48:44;;;;;;;5.20;0.68;;;25.40;99.90;;;;;;4980679;28;20033;-75
2022/01/27 01:51:16;;;;;;;3.22;0.75;;;25.30;99.90;;;;;;4983599;28;20113;-74
2022/01/27 01:53:43;;;;;;;4.00;0.82;;;25.50;99.90;;;;;;4984962;28;20022;-74
2022/01/27 01:56:10;;;;;;;4.40;0.50;;;25.60;99.90;;;;;;4986154;28;20038;-74
2022/01/27 01:58:38;;;;;;;3.40;0.60;;;25.60;99.90;;;;;;4999203;28;20027;-75
2022/01/27 02:01:05;;;;;;;2.65;0.60;;;25.40;99.90;;;;;;4985279;28;20030;-74
2022/01/27 02:03:32;;;;;;;11.60;1.30;;;25.50;99.90;;;;;;4984061;28;20018;-74
2022/01/27 02:06:00;;;;;;;2.13;0.65;;;25.80;99.90;;;;;;4983431;28;20022;-74
2022/01/27 02:19:18;;;;;;;3.10;0.70;;;25.90;99.90;;;;;;4984904;28;20419;-75
2022/01/27 02:21:57;;;;;;;1.95;0.40;;;25.80;99.90;;;;;;4981421;28;20571;-76
2022/01/27 02:24:28;;;;;;;4.13;0.65;;;26.20;99.90;;;;;;4984615;28;20404;-75
2022/01/27 02:26:57;;;;;;;7.78;1.40;;;26.60;99.90;;;;;;4982628;28;20025;-74
2022/01/27 02:29:26;;;;;;;3.58;0.60;;;26.30;99.90;;;;;;4984766;28;20018;-74
2022/01/27 02:31:55;;;;;;;7.22;0.50;;;25.90;99.90;;;;;;4983927;28;20022;-72
2022/01/27 02:34:24;;;;;;;2.25;0.63;;;25.60;99.90;;;;;;4981409;28;20035;-74
2022/01/27 02:36:52;;;;;;;4.03;0.65;;;25.20;99.90;;;;;;4984236;28;20033;-73
2022/01/27 02:39:20;;;;;;;6.75;0.90;;;25.30;99.90;;;;;;4985214;28;20078;-74
2022/01/27 02:42:05;;;;;;;3.88;1.15;;;25.50;99.90;;;;;;4982904;28;20415;-74
2022/01/27 02:44:52;;;;;;;6.97;1.10;;;25.90;99.90;;;;;;4984558;28;20034;-73
2022/01/27 02:47:20;;;;;;;3.13;0.98;;;26.10;99.90;;;;;;4984380;28;20035;-73
2022/01/27 02:49:51;;;;;;;2.65;0.60;;;26.50;99.90;;;;;;4983771;28;20097;-75
2022/01/27 02:52:18;;;;;;;3.88;0.57;;;27.00;99.90;;;;;;4989544;28;20021;-75
2022/01/27 02:54:46;;;;;;;5.40;0.70;;;26.70;99.90;;;;;;4991013;28;20383;-75
2022/01/27 02:57:14;;;;;;;6.47;0.65;;;26.60;99.90;;;;;;4991387;28;20440;-76
2022/01/27 02:59:41;;;;;;;6.28;0.63;;;26.30;99.90;;;;;;4988966;28;20062;-75
2022/01/27 03:02:09;;;;;;;3.70;0.77;;;26.20;99.90;;;;;;4990356;28;20038;-74
2022/01/27 03:04:36;;;;;;;5.85;1.08;;;26.30;99.90;;;;;;4990055;28;20464;-74
2022/01/27 03:07:05;;;;;;;3.13;0.52;;;26.10;99.90;;;;;;4988163;28;20015;-74
2022/01/27 03:09:37;;;;;;;3.75;0.93;;;26.10;99.90;;;;;;4989828;28;20073;-73
2022/01/27 03:12:07;;;;;;;3.50;0.98;;;26.00;99.90;;;;;;4990827;28;20033;-75
2022/01/27 03:14:36;;;;;;;2.00;0.77;;;25.90;99.90;;;;;;4989827;28;20022;-73
2022/01/27 03:17:05;;;;;;;8.45;1.05;;;25.70;99.90;;;;;;4988611;28;20090;-74
2022/01/27 03:19:34;;;;;;;5.05;0.70;;;26.10;99.90;;;;;;4990109;28;20463;-75
2022/01/27 03:22:03;;;;;;;4.03;0.75;;;26.20;99.90;;;;;;4990599;28;20030;-76
2022/01/27 03:24:30;;;;;;;6.68;0.63;;;26.00;99.90;;;;;;4989079;28;20547;-74
2022/01/27 03:26:58;;;;;;;7.53;1.35;;;26.20;99.90;;;;;;4989081;28;20030;-75
2022/01/27 03:29:26;;;;;;;3.03;1.00;;;26.20;99.90;;;;;;4990598;28;20093;-75
2022/01/27 03:31:57;;;;;;;2.97;1.27;;;26.10;99.90;;;;;;4990173;28;20105;-75
2022/01/27 03:34:25;;;;;;;5.13;1.02;;;25.70;99.90;;;;;;4988658;28;20049;-76
2022/01/27 03:36:52;;;;;;;7.40;0.85;;;25.70;99.90;;;;;;4989778;28;20033;-74
2022/01/27 03:39:22;;;;;;;3.05;0.80;;;25.60;99.90;;;;;;4990670;28;20019;-73
2022/01/27 03:41:51;;;;;;;5.40;0.90;;;25.60;99.90;;;;;;4990774;28;20014;-74
2022/01/27 03:44:20;;;;;;;2.10;0.73;;;26.00;99.90;;;;;;4989965;28;20064;-73
2022/01/27 03:46:47;;;;;;;3.22;1.02;;;26.40;99.90;;;;;;4990669;28;20045;-74
2022/01/27 03:49:15;;;;;;;5.55;0.90;;;26.40;99.90;;;;;;4989264;28;20565;-72
2022/01/27 03:51:45;;;;;;;5.30;1.00;;;26.20;99.90;;;;;;4988540;28;20034;-73
2022/01/27 03:54:12;;;;;;;3.75;0.63;;;26.90;99.90;;;;;;4988718;28;20391;-73
2022/01/27 03:56:40;;;;;;;3.72;0.65;;;27.50;99.90;;;;;;4990352;28;20097;-73
2022/01/27 03:59:08;;;;;;;3.22;0.85;;;27.60;99.90;;;;;;4990282;28;20022;-74
2022/01/27 04:01:37;;;;;;;5.28;1.08;;;27.20;99.90;;;;;;4987627;28;20023;-74
2022/01/27 04:04:04;;;;;;;5.40;0.70;;;26.30;99.90;;;;;;4985045;28;20108;-74
2022/01/27 04:06:38;;;;;;;2.92;1.00;;;26.10;99.90;;;;;;4986655;28;20030;-73
2022/01/27 04:09:08;;;;;;;6.68;1.45;;;26.20;99.90;;;;;;4986998;28;20019;-73
2022/01/27 04:11:37;;;;;;;3.22;1.10;;;26.40;99.90;;;;;;4986406;28;20023;-73
2022/01/27 04:14:05;;;;;;;4.18;0.60;;;26.40;99.90;;;;;;4985272;28;20050;-73
2022/01/27 04:16:32;;;;;;;4.50;0.50;;;26.00;99.90;;;;;;4986058;28;20030;-74
2022/01/27 04:19:00;;;;;;;2.35;0.57;;;26.00;99.90;;;;;;4985259;28;20045;-73
2022/01/27 04:21:27;;;;;;;2.63;0.40;;;26.10;99.90;;;;;;4986798;28;20073;-73
2022/01/27 04:23:56;;;;;;;5.97;1.00;;;25.90;99.90;;;;;;4984211;28;20042;-74
2022/01/27 04:26:34;;;;;;;4.13;0.45;;;25.90;99.90;;;;;;4988514;28;20084;-74
2022/01/27 04:29:02;;;;;;;5.53;1.08;;;25.70;99.90;;;;;;4987048;28;20048;-73
2022/01/27 04:31:30;;;;;;;5.43;1.20;;;25.50;99.90;;;;;;4985507;28;20026;-73
2022/01/27 04:33:58;;;;;;;3.15;0.65;;;25.30;99.90;;;;;;4985570;28;20026;-74
2022/01/27 04:36:34;;;;;;;4.00;0.60;;;25.30;99.90;;;;;;4987021;28;20026;-74
2022/01/27 04:39:15;;;;;;;5.50;0.82;;;25.30;99.90;;;;;;4987120;28;20109;-73
2022/01/27 04:42:02;;;;;;;2.85;0.82;;;25.30;99.90;;;;;;4987019;28;20034;-73
2022/01/27 04:44:37;;;;;;;2.83;0.68;;;25.20;99.90;;;;;;4986463;28;20038;-73
2022/01/27 04:47:11;;;;;;;2.42;0.80;;;25.50;99.90;;;;;;4986830;28;20037;-74
2022/01/27 04:49:38;;;;;;;3.75;0.95;;;25.50;99.90;;;;;;4986287;28;20081;-74
2022/01/27 04:52:07;;;;;;;4.68;1.13;;;25.80;99.90;;;;;;4984640;28;20530;-74
2022/01/27 04:54:53;;;;;;;5.43;0.80;;;25.90;99.90;;;;;;4985655;28;20034;-73
2022/01/27 04:57:21;;;;;;;3.08;0.60;;;26.00;99.90;;;;;;4986683;28;20495;-74
2022/01/27 04:59:48;;;;;;;5.60;1.02;;;26.00;99.90;;;;;;4986339;28;20054;-74
2022/01/27 05:02:25;;;;;;;4.40;1.25;;;25.90;99.90;;;;;;4985726;28;20015;-73
2022/01/27 05:04:52;;;;;;;2.40;0.80;;;25.80;99.90;;;;;;4986260;28;20030;-73
2022/01/27 05:07:20;;;;;;;6.82;0.60;;;25.60;99.90;;;;;;4986008;28;20026;-74
2022/01/27 05:09:56;;;;;;;8.15;0.98;;;25.40;99.90;;;;;;4986384;28;20029;-73
2022/01/27 05:15:04;;;;;;;3.67;0.95;;;25.40;99.90;;;;;;4984674;28;20034;-74
2022/01/27 05:17:31;;;;;;;4.63;0.98;;;25.90;99.90;;;;;;4978301;28;20027;-74
2022/01/27 05:19:58;;;;;;;4.60;1.10;;;26.30;99.90;;;;;;4985553;28;20023;-74
2022/01/27 05:22:26;;;;;;;4.60;1.00;;;26.40;99.90;;;;;;4979627;28;20053;-73
2022/01/27 05:24:53;;;;;;;5.35;1.05;;;26.30;99.90;;;;;;4992739;28;20034;-73
2022/01/27 05:27:21;;;;;;;8.95;1.05;;;26.10;99.90;;;;;;4992722;28;20026;-73
2022/01/27 05:29:48;;;;;;;4.40;1.17;;;25.80;99.90;;;;;;4992352;28;20026;-73
2022/01/27 05:32:15;;;;;;;4.15;1.13;;;25.80;99.90;;;;;;4984863;28;20499;-74
2022/01/27 05:34:43;;;;;;;3.70;0.90;;;25.90;99.90;;;;;;4983975;28;20026;-74
2022/01/27 05:37:10;;;;;;;2.50;0.73;;;25.80;99.90;;;;;;4983173;28;20019;-74
2022/01/27 05:39:38;;;;;;;3.40;0.95;;;25.70;99.90;;;;;;4984496;28;20073;-73
2022/01/27 05:42:05;;;;;;;5.05;0.80;;;25.60;99.90;;;;;;4985530;28;20097;-73
2022/01/27 05:44:32;;;;;;;5.40;1.05;;;25.50;99.90;;;;;;4984124;28;20066;-74
2022/01/27 05:47:00;;;;;;;5.80;0.70;;;25.50;99.90;;;;;;4983807;28;20018;-72
2022/01/27 05:49:27;;;;;;;3.58;1.23;;;25.20;99.90;;;;;;4983914;28;20022;-74
2022/01/27 05:51:55;;;;;;;4.18;1.10;;;25.00;99.90;;;;;;4982540;28;20019;-74
2022/01/27 05:54:22;;;;;;;2.10;0.65;;;24.90;99.90;;;;;;4981355;28;20026;-74
2022/01/27 05:56:49;;;;;;;4.95;0.93;;;24.70;99.90;;;;;;4984853;28;20045;-75
2022/01/27 05:59:17;;;;;;;2.35;0.60;;;24.60;99.90;;;;;;4977463;28;20038;-74
2022/01/27 06:01:44;;;;;;;3.17;0.93;;;25.00;99.90;;;;;;4984546;28;20023;-73
2022/01/27 06:04:11;;;;;;;3.28;0.88;;;25.20;99.90;;;;;;4983205;28;20495;-74
2022/01/27 06:06:39;;;;;;;7.47;1.48;;;25.50;99.90;;;;;;4984282;28;20041;-74
2022/01/27 06:09:06;;;;;;;11.25;1.30;;;25.40;99.90;;;;;;4984566;28;20129;-74
2022/01/27 06:11:33;;;;;;;4.63;0.50;;;25.40;99.90;;;;;;4984383;28;20041;-74
2022/01/27 06:14:01;;;;;;;2.63;0.80;;;25.50;99.90;;;;;;4984735;28;20500;-72
2022/01/27 06:16:28;;;;;;;2.45;0.90;;;25.30;99.90;;;;;;4984147;28;20067;-72
2022/01/27 06:18:55;;;;;;;4.47;0.95;;;25.20;99.90;;;;;;4983751;28;20028;-72
2022/01/27 06:21:23;;;;;;;7.03;0.70;;;24.90;99.90;;;;;;4984769;28;20026;-72
2022/01/27 06:23:50;;;;;;;3.33;0.77;;;24.80;99.90;;;;;;4982795;28;20046;-74
2022/01/27 06:26:17;;;;;;;2.75;1.02;;;24.80;99.90;;;;;;4982861;28;20085;-74
2022/01/27 06:28:45;;;;;;;3.70;1.23;;;24.80;99.90;;;;;;4984679;28;20018;-73
2022/01/27 06:31:13;;;;;;;2.60;0.82;;;24.90;99.90;;;;;;4983700;28;20027;-73
2022/01/27 06:33:40;;;;;;;2.38;0.50;;;24.80;99.90;;;;;;4983166;28;20036;-72
2022/01/27 06:36:07;;;;;;;6.82;1.15;;;24.70;99.90;;;;;;4984931;28;20022;-74
2022/01/27 06:38:35;;;;;;;4.35;1.15;;;24.60;99.90;;;;;;4983918;28;20361;-72
2022/01/27 06:41:02;;;;;;;6.53;1.23;;;24.60;99.90;;;;;;4982906;28;20070;-70
2022/01/27 06:43:29;;;;;;;4.43;1.33;;;24.60;99.90;;;;;;4982890;28;20031;-72
2022/01/27 06:45:56;;;;;;;6.45;1.20;;;24.60;99.90;;;;;;4983539;28;20026;-73
2022/01/27 06:48:24;;;;;;;2.55;0.88;;;24.50;99.90;;;;;;4984700;28;20106;-72
2022/01/27 06:50:54;;;;;;;5.20;0.70;;;24.50;99.90;;;;;;4983304;28;20496;-71
2022/01/27 06:53:22;;;;;;;7.20;1.00;;;24.40;99.90;;;;;;4982861;28;20030;-71
2022/01/27 06:55:51;;;;;;;7.43;0.95;;;24.40;99.90;;;;;;4982833;28;20455;-71
2022/01/27 06:58:18;;;;;;;3.10;0.80;;;24.20;99.90;;;;;;4978362;28;20423;-71
2022/01/27 07:00:45;;;;;;;2.55;0.65;;;24.20;99.90;;;;;;4988283;28;20396;-71
2022/01/27 07:03:13;;;;;;;4.88;0.63;;;24.30;99.90;;;;;;4980562;28;20422;-71
2022/01/27 07:05:41;;;;;;;4.10;1.30;;;24.30;99.90;;;;;;4980846;28;20407;-71
2022/01/27 07:08:09;;;;;;;3.03;0.80;;;24.30;99.90;;;;;;4983575;28;20498;-71
2022/01/27 07:10:36;;;;;;;4.38;1.08;;;24.30;99.90;;;;;;4982292;28;20030;-71
2022/01/27 07:13:04;;;;;;;4.00;1.05;;;24.20;99.90;;;;;;4982043;28;20077;-70
2022/01/27 07:15:32;;;;;;;4.10;0.80;;;24.10;99.90;;;;;;4978613;28;20035;-71
2022/01/27 07:17:59;;;;;;;6.60;1.13;;;24.00;99.90;;;;;;4982542;28;20106;-74
2022/01/27 07:20:27;;;;;;;3.60;0.88;;;24.00;99.90;;;;;;4979448;28;20085;-73
2022/01/27 07:22:55;;;;;;;10.10;1.10;;;24.00;99.90;;;;;;4978125;28;20038;-73
2022/01/27 07:25:22;;;;;;;4.90;1.13;;;23.90;99.90;;;;;;4980314;28;20506;-74
2022/01/27 07:27:50;;;;;;;3.63;0.80;;;23.90;99.90;;;;;;4977372;28;20037;-73
2022/01/27 07:30:17;;;;;;;4.50;1.10;;;23.80;99.90;;;;;;4986553;28;20022;-75
2022/01/27 07:32:44;;;;;;;3.65;0.63;;;23.70;99.90;;;;;;4987652;28;20023;-74
2022/01/27 07:35:12;;;;;;;10.38;1.30;;;23.60;99.90;;;;;;4987032;28;20034;-74
2022/01/27 07:37:41;;;;;;;9.43;1.10;;;23.60;99.90;;;;;;4991466;28;20423;-72
2022/01/27 07:40:11;;;;;;;12.27;0.73;;;23.60;99.90;;;;;;4990449;28;20480;-71
2022/01/27 07:42:38;;;;;;;8.35;1.05;;;23.60;99.90;;;;;;4991917;28;20029;-72
2022/01/27 07:45:07;;;;;;;5.50;0.57;;;23.60;99.90;;;;;;4991375;28;20393;-72
2022/01/27 07:47:35;;;;;;;13.48;1.40;;;23.60;99.90;;;;;;4991161;28;20029;-72
2022/01/27 07:50:03;;;;;;;4.10;0.47;;;23.50;99.90;;;;;;4989499;28;20030;-71
2022/01/27 07:52:31;;;;;;;6.85;0.93;;;23.50;99.90;;;;;;4990968;28;20022;-71
2022/01/27 07:54:58;;;;;;;5.55;0.75;;;23.40;99.90;;;;;;4990804;28;20023;-72
2022/01/27 07:57:25;;;;;;;7.20;0.90;;;23.50;99.90;;;;;;4987458;28;20053;-72
2022/01/27 07:59:53;;;;;;;4.28;0.95;;;23.40;99.90;;;;;;4985494;28;20501;-73
2022/01/27 08:02:20;;;;;;;4.05;1.13;;;23.40;99.90;;;;;;4987982;28;20019;-72
2022/01/27 08:04:47;;;;;;;4.40;0.73;;;23.40;99.90;;;;;;4989669;28;20078;-72
2022/01/27 08:07:15;;;;;;;4.70;1.00;;;23.40;99.90;;;;;;4991055;28;20112;-73
2022/01/27 08:09:42;;;;;;;3.72;1.00;;;23.30;99.90;;;;;;4992561;28;20022;-74
2022/01/27 08:12:09;;;;;;;9.45;1.42;;;23.40;99.90;;;;;;4982894;28;20030;-72
2022/01/27 08:14:37;;;;;;;2.20;0.68;;;23.40;99.90;;;;;;4982352;28;20400;-72
2022/01/27 08:17:04;;;;;;;3.13;0.80;;;23.40;99.90;;;;;;4982871;28;20183;-72
2022/01/27 08:19:31;;;;;;;6.00;0.90;;;23.30;99.90;;;;;;4985105;28;20102;-72
2022/01/27 08:21:59;;;;;;;5.57;1.30;;;23.20;99.90;;;;;;4983338;28;20552;-73
2022/01/27 08:24:26;;;;;;;3.80;0.70;;;23.20;99.90;;;;;;4984442;28;20046;-72
2022/01/27 08:27:00;;;;;;;4.53;1.10;;;23.10;99.90;;;;;;4985231;28;20463;-72
2022/01/27 08:29:34;;;;;;;5.35;1.48;;;23.10;99.90;;;;;;4983662;28;20395;-73
2022/01/27 08:32:02;;;;;;;4.72;1.00;;;23.00;99.90;;;;;;4986704;28;20023;-72
2022/01/27 08:34:35;;;;;;;7.00;0.90;;;23.00;99.90;;;;;;4994571;28;20030;-72
2022/01/27 08:37:21;;;;;;;7.88;0.95;;;22.90;99.90;;;;;;4994442;28;20475;-73
2022/01/27 08:39:48;;;;;;;;;;;22.90;99.90;;;;;;4995536;28;20042;-73
2022/01/27 08:42:16;;;;;;;6.65;0.90;;;22.80;99.90;;;;;;4993110;28;19913;-73
2022/01/27 08:44:45;;;;;;;4.75;1.27;;;22.80;99.90;;;;;;4992112;28;20487;-73
2022/01/27 08:47:14;;;;;;;2.83;0.88;;;22.80;99.90;;;;;;4988976;28;20070;-73
2022/01/27 08:49:44;;;;;;;2.72;0.70;;;22.70;99.90;;;;;;4987196;28;20022;-73
2022/01/27 08:52:12;;;;;;;2.55;0.52;;;22.70;99.90;;;;;;4987774;28;20031;-72
2022/01/27 08:54:40;;;;;;;6.57;0.98;;;22.70;99.90;;;;;;4985782;28;20019;-71
2022/01/27 08:57:07;;;;;;;5.32;0.95;;;22.60;99.90;;;;;;4980817;28;20019;-72
2022/01/27 08:59:35;;;;;;;5.63;1.40;;;22.60;99.90;;;;;;4980795;28;20030;-72
2022/01/27 09:02:02;;;;;;;7.93;1.02;;;22.60;99.90;;;;;;4985988;28;20359;-72
2022/01/27 09:04:29;;;;;;;7.97;1.42;;;22.60;99.90;;;;;;4980481;28;20056;-73
2022/01/27 09:06:57;;;;;;;5.57;1.20;;;22.50;99.90;;;;;;4989706;28;20387;-71
2022/01/27 09:09:24;;;;;;;4.72;1.08;;;22.50;99.90;;;;;;4978504;28;20074;-74
2022/01/27 09:11:51;;;;;;;6.90;1.02;;;22.50;99.90;;;;;;4987194;28;20030;-71
2022/01/27 09:14:19;;;;;;;9.98;1.35;;;22.50;99.90;;;;;;4976366;28;20849;-71
2022/01/27 09:16:46;;;;;;;7.80;1.17;;;22.50;99.90;;;;;;4983621;28;20034;-71
2022/01/27 09:19:14;;;;;;;4.03;1.30;;;22.40;99.90;;;;;;4980169;28;20033;-71
2022/01/27 09:21:46;;;;;;;6.82;1.35;;;22.40;99.90;;;;;;4988193;28;20106;-71
2022/01/27 09:24:17;;;;;;;5.05;0.73;;;22.40;99.90;;;;;;4993868;28;20042;-71
2022/01/27 09:29:20;;;;;;;6.43;1.30;;;22.40;99.90;;;;;;4994631;28;20029;-71
2022/01/27 09:31:49;;;;;;;3.88;0.90;;;22.40;99.90;;;;;;4994948;28;20033;-71
2022/01/27 09:34:17;;;;;;;6.43;1.60;;;22.40;99.90;;;;;;4994572;28;20106;-71
2022/01/27 09:36:49;;;;;;;5.20;1.38;;;22.40;99.90;;;;;;4994794;28;20019;-71
2022/01/27 09:39:19;;;;;;;5.00;0.90;;;22.30;99.90;;;;;;4994571;28;20034;-71
2022/01/27 09:41:49;;;;;;;8.30;1.13;;;22.30;99.90;;;;;;4992935;28;20125;-71
2022/01/27 09:44:18;;;;;;;2.17;0.70;;;22.30;99.90;;;;;;4986263;28;20030;-72
2022/01/27 09:46:46;;;;;;;5.22;0.70;;;22.30;99.90;;;;;;4988273;28;20130;-71
2022/01/27 09:49:17;;;;;;;6.93;0.98;;;22.30;99.90;;;;;;4990998;28;20024;-71
2022/01/27 09:51:47;;;;;;;4.07;0.68;;;22.30;99.90;;;;;;4989900;28;20076;-71
2022/01/27 09:54:16;;;;;;;8.52;1.35;;;22.30;99.90;;;;;;4988807;28;20023;-71
2022/01/27 09:56:44;;;;;;;4.15;0.93;;;22.20;99.90;;;;;;4992853;28;20019;-70
2022/01/27 09:59:11;;;;;;;2.03;0.82;;;22.20;99.90;;;;;;4993376;28;20050;-71
2022/01/27 10:02:02;;;;;;;3.95;0.70;;;22.20;99.90;;;;;;4993359;28;20442;-71
2022/01/27 10:04:47;;;;;;;7.05;0.73;;;22.20;99.90;;;;;;4993544;28;20029;-71
2022/01/27 10:07:20;;;;;;;5.38;0.75;;;22.20;99.90;;;;;;4993054;28;20071;-71
2022/01/27 10:10:00;;;;;;;2.55;0.75;;;22.20;99.90;;;;;;4991558;28;20025;-71
2022/01/27 10:12:31;;;;;;;6.20;0.82;;;22.20;99.90;;;;;;4992471;28;20033;-71
2022/01/27 10:15:07;;;;;;;6.75;0.98;;;22.20;99.90;;;;;;4988633;28;20466;-71
2022/01/27 10:17:38;;;;;;;5.55;1.67;;;22.10;99.90;;;;;;4992909;28;20022;-71
2022/01/27 10:20:16;;;;;;;3.70;1.02;;;22.20;99.90;;;;;;4992837;28;20033;-71
2022/01/27 10:23:03;;;;;;;5.50;0.82;;;22.20;99.90;;;;;;4990813;28;20073;-71
2022/01/27 10:25:46;;;;;;;7.47;0.85;;;22.20;99.90;;;;;;4992111;28;20147;-70
2022/01/27 10:31:25;;;;;;;5.28;1.48;;;22.10;99.90;;;;;;4993101;28;20472;-71
2022/01/27 10:33:58;;;;;;;5.38;0.73;;;22.10;99.90;;;;;;4991872;28;20065;-72
2022/01/27 10:36:31;;;;;;;4.20;1.17;;;22.10;99.90;;;;;;4991900;28;20080;-71
2022/01/27 10:39:05;;;;;;;8.00;1.00;;;22.10;99.90;;;;;;4993245;28;20019;-71
2022/01/27 10:41:35;;;;;;;6.47;1.00;;;22.10;99.90;;;;;;4992912;28;20157;-71
2022/01/27 10:44:14;;;;;;;1.15;0.57;;;22.10;99.90;;;;;;4990007;28;20434;-71
2022/01/27 10:47:03;;;;;;;5.85;0.98;;;22.10;99.90;;;;;;4992008;28;20026;-71
2022/01/27 10:49:34;;;;;;;8.35;1.33;;;22.10;99.90;;;;;;4992471;28;20506;-71
2022/01/27 10:52:01;;;;;;;5.70;1.02;;;22.10;99.90;;;;;;4991997;28;20053;-71
2022/01/27 10:54:39;;;;;;;5.88;1.10;;;22.10;99.90;;;;;;4990055;28;20019;-71
2022/01/27 10:57:11;;;;;;;2.33;0.98;;;22.10;99.90;;;;;;4989691;28;20033;-71
2022/01/27 10:59:40;;;;;;;4.35;1.13;;;22.10;99.90;;;;;;4991845;28;20479;-71
2022/01/27 11:02:10;;;;;;;7.28;1.10;;;22.10;99.90;;;;;;4992433;28;20026;-71
2022/01/27 11:04:42;;;;;;;9.18;1.48;;;22.10;99.90;;;;;;4991506;28;20034;-71
2022/01/27 11:07:12;;;;;;;7.70;1.35;;;22.10;99.90;;;;;;4991602;28;20046;-71
2022/01/27 11:09:44;;;;;;;9.52;1.38;;;22.10;99.90;;;;;;4992164;28;20061;-71
2022/01/27 11:12:17;;;;;;;3.28;0.70;;;22.10;99.90;;;;;;4993565;28;20030;-71
2022/01/27 11:14:49;;;;;;;6.38;0.75;;;22.10;99.90;;;;;;4996270;28;20483;-71
2022/01/27 11:17:20;;;;;;;6.45;1.38;;;22.00;99.90;;;;;;4996191;28;20029;-71
2022/01/27 11:27:25;;;;;;;8.82;1.00;;;22.00;99.90;;;;;;4996870;28;20022;-71
2022/01/27 11:30:12;;;;;;;2.47;0.80;;;22.00;99.90;;;;;;4996538;28;20060;-70
2022/01/27 11:32:48;;;;;;;8.20;0.85;;;22.00;99.90;;;;;;4995965;28;20480;-71
2022/01/27 11:35:21;;;;;;;6.78;0.85;;;22.00;99.90;;;;;;4996360;28;20122;-71
2022/01/27 11:37:56;;;;;;;3.28;0.65;;;22.00;99.90;;;;;;4995438;28;20026;-71
2022/01/27 11:40:35;;;;;;;3.08;0.60;;;21.90;99.90;;;;;;4995303;28;20020;-70
2022/01/27 11:43:07;;;;;;;3.50;1.52;;;21.90;99.90;;;;;;4989463;28;20150;-71
2022/01/27 11:45:39;;;;;;;3.22;0.80;;;22.00;99.90;;;;;;4989333;28;20065;-70
2022/01/27 11:48:15;;;;;;;6.85;1.40;;;21.90;99.90;;;;;;4987549;28;20456;-71
2022/01/27 11:53:44;;;;;;;4.43;0.95;;;21.90;99.90;;;;;;4989323;28;20047;-71
2022/01/27 11:56:15;;;;;;;2.45;0.98;;;21.90;99.90;;;;;;4989468;28;20018;-71
2022/01/27 11:58:48;;;;;;;6.20;1.15;;;21.90;99.90;;;;;;4995900;28;20046;-70
2022/01/27 12:01:21;;;;;;;3.67;0.90;;;21.90;99.90;;;;;;4995052;28;20414;-70
2022/01/27 12:04:07;;;;;;;6.85;1.27;;;21.90;99.90;;;;;;4995915;28;20022;-72
2022/01/27 12:06:40;;;;;;;3.42;0.93;;;21.90;99.90;;;;;;4987285;28;20027;-71
2022/01/27 12:09:20;;;;;;;8.93;1.02;;;21.90;99.90;;;;;;4985324;28;20027;-73
2022/01/27 12:11:56;;;;;;;7.53;1.17;;;21.90;99.90;;;;;;4986604;28;20019;-71
2022/01/27 12:14:33;;;;;;;5.18;0.80;;;21.90;99.90;;;;;;4986463;28;20038;-72
2022/01/27 12:17:10;;;;;;;4.18;0.82;;;21.80;99.90;;;;;;4986172;28;20105;-72
2022/01/27 12:19:47;;;;;;;8.35;1.10;;;21.80;99.90;;;;;;4985545;28;20429;-71
2022/01/27 12:22:16;;;;;;;3.92;0.70;;;21.80;99.90;;;;;;4984597;28;20023;-70
2022/01/27 12:25:01;;;;;;;4.78;0.60;;;21.90;99.90;;;;;;4984098;28;20034;-71
2022/01/27 12:27:30;;;;;;;6.28;1.67;;;21.80;99.90;;;;;;4987201;28;20531;-71
2022/01/27 12:30:00;;;;;;;7.55;1.23;;;21.80;99.90;;;;;;4987234;28;20054;-71
2022/01/27 12:32:32;;;;;;;5.25;0.88;;;21.80;99.90;;;;;;4987066;28;20114;-71
2022/01/27 12:35:04;;;;;;;6.40;0.95;;;21.80;99.90;;;;;;4985717;28;20026;-70
2022/01/27 12:37:34;;;;;;;2.47;0.40;;;21.80;99.90;;;;;;4984863;28;20102;-71
2022/01/27 12:40:08;;;;;;;4.38;1.10;;;21.80;99.90;;;;;;4986196;28;20015;-71
2022/01/27 12:42:37;;;;;;;3.97;0.60;;;21.80;99.90;;;;;;4986951;28;20502;-70
2022/01/27 12:45:12;;;;;;;3.38;0.80;;;21.80;99.90;;;;;;4985945;28;20030;-71
2022/01/27 12:47:41;;;;;;;5.35;0.82;;;21.80;99.90;;;;;;4985432;28;20503;-71
2022/01/27 12:50:20;;;;;;;4.10;0.80;;;21.80;99.90;;;;;;4984821;28;20113;-71
2022/01/27 12:52:51;;;;;;;3.72;1.02;;;21.80;99.90;;;;;;4986329;28;20023;-71
2022/01/27 12:55:25;;;;;;;3.33;0.88;;;21.80;99.90;;;;;;4986183;28;20030;-72
2022/01/27 12:57:58;;;;;;;5.15;1.02;;;21.80;99.90;;;;;;4987086;28;20023;-71
2022/01/27 13:00:28;;;;;;;3.20;0.60;;;21.80;99.90;;;;;;4985889;28;20379;-72
2022/01/27 13:03:03;;;;;;;4.72;0.90;;;21.80;99.90;;;;;;4986690;28;20066;-72
2022/01/27 13:05:37;;;;;;;5.68;1.08;;;21.80;99.90;;;;;;4986434;28;20039;-72
2022/01/27 13:08:16;;;;;;;3.63;0.50;;;21.80;99.90;;;;;;4985887;28;20027;-68
2022/01/27 13:10:58;;;;;;;4.93;1.08;;;21.80;99.90;;;;;;4985283;28;20111;-70
2022/01/27 13:13:33;;;;;;;4.25;0.82;;;21.80;99.90;;;;;;4985743;28;20353;-69
2022/01/27 13:16:08;;;;;;;6.20;0.90;;;21.80;99.90;;;;;;4986330;28;20022;-71
2022/01/27 13:21:27;;;;;;;4.30;1.38;;;21.80;99.90;;;;;;4985863;28;20023;-70
2022/01/27 13:24:07;;;;;;;2.08;0.68;;;21.80;99.90;;;;;;4985763;28;20097;-70
2022/01/27 13:26:35;;;;;;;3.83;1.00;;;21.80;99.90;;;;;;4986065;28;20022;-70
2022/01/27 13:29:03;;;;;;;4.97;1.00;;;21.70;99.90;;;;;;4984997;28;20029;-70
2022/01/27 13:31:31;;;;;;;5.57;0.88;;;21.70;99.90;;;;;;4983973;28;20035;-71
2022/01/27 13:34:03;;;;;;;9.68;1.05;;;21.70;99.90;;;;;;4984126;28;20026;-70
2022/01/27 13:36:36;;;;;;;4.95;0.73;;;21.70;99.90;;;;;;4983968;28;20029;-69
2022/01/27 13:39:34;;;;;;;3.25;1.05;;;21.70;99.90;;;;;;4984859;28;20015;-71
2022/01/27 13:42:08;;;;;;;5.00;0.85;;;21.70;99.90;;;;;;4985648;28;20418;-70
2022/01/27 13:44:35;;;;;;;8.18;1.27;;;21.70;99.90;;;;;;4985484;28;20026;-70
2022/01/27 13:47:06;;;;;;;6.57;1.05;;;21.60;99.90;;;;;;4984623;28;20039;-70
2022/01/27 13:49:38;;;;;;;2.72;0.75;;;21.60;99.90;;;;;;4983654;28;20077;-70
2022/01/27 13:52:10;;;;;;;7.28;1.20;;;21.60;99.90;;;;;;4983079;28;20035;-70
2022/01/27 13:54:39;;;;;;;6.05;1.63;;;21.60;99.90;;;;;;4985457;28;20023;-71
2022/01/27 13:57:14;;;;;;;7.60;1.52;;;21.60;99.90;;;;;;4982957;28;20022;-70